createdAt,value
2023-02-11T00:00:22.971Z,42.28
2023-02-11T00:02:49.725Z,42.45
2023-02-11T00:05:16.938Z,41.67
2023-02-11T00:07:43.745Z,41.69
2023-02-11T00:10:10.608Z,42.03
2023-02-11T00:12:38.239Z,42.20
2023-02-11T00:15:07.943Z,41.91
2023-02-11T00:17:34.633Z,41.03
2023-02-11T00:20:01.423Z,41.63
2023-02-11T00:22:28.259Z,41.58
2023-02-11T00:24:57.016Z,41.72
2023-02-11T00:27:23.799Z,41.29
2023-02-11T00:29:51.631Z,42.08
2023-02-11T00:32:18.492Z,42.06
2023-02-11T00:34:45.387Z,42.15
2023-02-11T00:37:13.635Z,41.89
2023-02-11T00:39:42.042Z,42.23
2023-02-11T00:42:16.341Z,42.31
2023-02-11T00:44:45.305Z,42.49
2023-02-11T00:47:12.157Z,42.22
2023-02-11T00:49:40.286Z,42.28
2023-02-11T00:52:07.141Z,42.76
2023-02-11T00:54:34.928Z,42.76
2023-02-11T00:57:01.849Z,42.94
2023-02-11T00:59:28.741Z,42.45
2023-02-11T01:01:55.576Z,42.45
2023-02-11T01:04:22.482Z,42.42
2023-02-11T01:06:52.065Z,42.39
2023-02-11T01:09:21.041Z,42.63
2023-02-11T01:11:48.049Z,42.61
2023-02-11T01:14:14.845Z,42.70
2023-02-11T01:16:41.776Z,42.18
2023-02-11T01:19:08.632Z,42.51
2023-02-11T01:21:35.462Z,42.39
2023-02-11T01:24:02.274Z,42.75
2023-02-11T01:26:29.079Z,42.76
2023-02-11T01:29:00.732Z,42.54
2023-02-11T01:31:28.028Z,42.66
2023-02-11T01:33:54.882Z,42.75
2023-02-11T01:36:21.699Z,42.76
2023-02-11T01:38:49.828Z,43.42
2023-02-11T01:41:16.896Z,42.61
2023-02-11T01:43:49.755Z,43.21
2023-02-11T01:46:38.028Z,43.35
2023-02-11T01:49:10.446Z,43.29
2023-02-11T01:51:44.421Z,42.78
2023-02-11T01:54:36.236Z,42.86
2023-02-11T01:57:22.801Z,43.04
2023-02-11T02:00:12.561Z,43.14
2023-02-11T02:03:03.299Z,43.26
2023-02-11T02:05:45.171Z,42.89
2023-02-11T02:08:34.274Z,42.92
2023-02-11T02:11:02.428Z,43.16
2023-02-11T02:13:32.790Z,43.24
2023-02-11T02:16:12.084Z,43.36
2023-02-11T02:18:48.825Z,43.03
2023-02-11T02:22:10.496Z,43.16
2023-02-11T02:25:00.942Z,43.36
2023-02-11T02:27:51.004Z,42.61
2023-02-11T02:31:05.374Z,43.03
2023-02-11T02:33:53.232Z,42.97
2023-02-11T02:36:38.008Z,43.03
2023-02-11T02:39:24.705Z,42.48
2023-02-11T02:41:53.629Z,42.57
2023-02-11T02:44:21.261Z,42.65
2023-02-11T02:46:48.091Z,42.85
2023-02-11T02:49:16.719Z,42.57
2023-02-11T02:52:12.298Z,43.12
2023-02-11T02:55:26.640Z,43.24
2023-02-11T02:58:14.413Z,42.69
2023-02-11T03:00:58.935Z,43.36
2023-02-11T03:04:00.041Z,42.66
2023-02-11T03:07:00.694Z,42.89
2023-02-11T03:09:34.765Z,43.08
2023-02-11T03:12:03.401Z,42.76
2023-02-11T03:14:32.294Z,43.22
2023-02-11T03:17:03.734Z,42.48
2023-02-11T03:19:44.219Z,43.40
2023-02-11T03:22:37.181Z,43.02
2023-02-11T03:25:05.187Z,42.80
2023-02-11T03:27:53.043Z,43.08
2023-02-11T03:30:35.075Z,43.17
2023-02-11T03:33:18.431Z,43.22
2023-02-11T03:35:56.745Z,42.86
2023-02-11T03:38:31.681Z,43.18
2023-02-11T03:40:59.816Z,42.64
2023-02-11T03:43:33.674Z,43.30
2023-02-11T03:46:02.580Z,43.22
2023-02-11T03:48:39.544Z,42.95
2023-02-11T03:51:09.615Z,43.73
2023-02-11T03:53:39.004Z,43.39
2023-02-11T03:56:10.345Z,43.53
2023-02-11T03:58:37.373Z,43.02
2023-02-11T04:01:05.133Z,43.94
2023-02-11T04:03:32.907Z,43.71
2023-02-11T04:05:59.849Z,43.66
2023-02-11T04:08:26.632Z,43.39
2023-02-11T04:10:53.392Z,43.92
2023-02-11T04:13:20.181Z,44.24
2023-02-11T04:15:48.865Z,44.26
2023-02-11T04:18:15.887Z,44.00
2023-02-11T04:20:42.746Z,43.78
2023-02-11T04:23:10.102Z,43.47
2023-02-11T04:25:36.988Z,44.35
2023-02-11T04:28:03.910Z,44.55
2023-02-11T04:30:30.703Z,44.31
2023-02-11T04:32:58.820Z,44.80
2023-02-11T04:35:25.662Z,44.62
2023-02-11T04:37:52.463Z,44.33
2023-02-11T04:40:19.325Z,44.54
2023-02-11T04:42:46.088Z,44.88
2023-02-11T04:45:12.868Z,44.72
2023-02-11T04:47:39.935Z,44.12
2023-02-11T04:50:06.939Z,44.08
2023-02-11T04:52:33.722Z,43.85
2023-02-11T04:55:00.493Z,44.60
2023-02-11T04:57:27.277Z,44.27
2023-02-11T04:59:54.040Z,43.98
2023-02-11T05:02:20.810Z,44.03
2023-02-11T05:04:47.695Z,44.30
2023-02-11T05:07:14.490Z,44.13
2023-02-11T05:09:41.344Z,44.06
2023-02-11T05:12:08.948Z,44.03
2023-02-11T05:14:35.785Z,44.02
2023-02-11T05:17:02.660Z,44.37
2023-02-11T05:19:31.115Z,44.63
2023-02-11T05:22:03.151Z,44.46
2023-02-11T05:24:33.290Z,44.53
2023-02-11T05:27:01.077Z,44.62
2023-02-11T05:29:28.233Z,44.35
2023-02-11T05:31:55.009Z,44.12
2023-02-11T05:34:21.834Z,44.67
2023-02-11T05:36:48.618Z,44.20
2023-02-11T05:39:15.459Z,44.54
2023-02-11T05:41:42.265Z,44.86
2023-02-11T05:44:09.087Z,44.58
2023-02-11T05:46:36.403Z,44.88
2023-02-11T05:49:03.776Z,44.90
2023-02-11T05:51:30.609Z,44.57
2023-02-11T05:53:57.411Z,44.59
2023-02-11T05:56:24.208Z,45.50
2023-02-11T05:58:51.029Z,45.22
2023-02-11T06:01:17.815Z,45.54
2023-02-11T06:03:44.681Z,45.77
2023-02-11T06:06:12.859Z,44.99
2023-02-11T06:08:39.740Z,45.64
2023-02-11T06:11:06.749Z,45.60
2023-02-11T06:13:33.592Z,45.13
2023-02-11T06:16:02.709Z,45.34
2023-02-11T06:18:29.809Z,45.35
2023-02-11T06:20:56.665Z,45.77
2023-02-11T06:23:23.628Z,45.76
2023-02-11T06:25:51.436Z,45.71
2023-02-11T06:28:19.481Z,45.27
2023-02-11T06:30:46.383Z,45.22
2023-02-11T06:33:13.185Z,45.35
2023-02-11T06:35:40.291Z,44.91
2023-02-11T06:38:07.222Z,44.76
2023-02-11T06:40:34.109Z,45.58
2023-02-11T06:43:00.904Z,45.09
2023-02-11T06:45:27.730Z,45.26
2023-02-11T06:47:54.505Z,45.24
2023-02-11T06:50:21.378Z,45.10
2023-02-11T06:52:48.288Z,45.47
2023-02-11T06:55:15.298Z,45.06
2023-02-11T06:57:42.185Z,45.38
2023-02-11T07:00:09.949Z,45.46
2023-02-11T07:02:36.790Z,45.49
2023-02-11T07:05:05.970Z,45.59
2023-02-11T07:07:34.207Z,45.25
2023-02-11T07:10:03.005Z,45.15
2023-02-11T07:12:30.869Z,45.61
2023-02-11T07:14:57.794Z,45.02
2023-02-11T07:17:24.601Z,45.50
2023-02-11T07:19:52.443Z,45.20
2023-02-11T07:22:19.237Z,45.19
2023-02-11T07:24:46.304Z,45.58
2023-02-11T07:27:13.314Z,45.61
2023-02-11T07:29:42.058Z,45.59
2023-02-11T07:32:08.989Z,45.42
2023-02-11T07:34:35.972Z,45.12
2023-02-11T07:37:03.058Z,45.46
2023-02-11T07:39:29.933Z,45.23
2023-02-11T07:41:56.893Z,45.74
2023-02-11T07:44:23.961Z,45.50
2023-02-11T07:46:50.829Z,45.69
2023-02-11T07:49:17.792Z,45.36
2023-02-11T07:51:44.673Z,45.55
2023-02-11T07:54:12.287Z,45.55
2023-02-11T07:56:39.164Z,45.51
2023-02-11T07:59:05.944Z,45.74
2023-02-11T08:01:33.040Z,45.58
2023-02-11T08:04:01.615Z,45.57
2023-02-11T08:06:32.503Z,45.73
2023-02-11T08:09:06.976Z,45.66
2023-02-11T08:11:33.752Z,45.62
2023-02-11T08:14:00.598Z,45.54
2023-02-11T08:16:31.576Z,45.67
2023-02-11T08:19:05.319Z,45.80
2023-02-11T08:21:32.493Z,45.19
2023-02-11T08:24:01.384Z,45.75
2023-02-11T08:26:31.650Z,45.51
2023-02-11T08:28:59.262Z,45.71
2023-02-11T08:31:34.020Z,45.70
2023-02-11T08:34:02.241Z,45.50
2023-02-11T08:36:35.614Z,45.53
2023-02-11T08:39:22.485Z,45.54
2023-02-11T08:41:53.613Z,45.56
2023-02-11T08:44:21.364Z,45.80
2023-02-11T08:46:49.296Z,45.45
2023-02-11T08:49:16.510Z,45.48
2023-02-11T08:51:44.301Z,45.46
2023-02-11T08:54:11.409Z,45.55
2023-02-11T08:56:39.095Z,45.70
2023-02-11T08:59:07.258Z,45.60
2023-02-11T09:01:34.325Z,45.67
2023-02-11T09:04:01.615Z,45.26
2023-02-11T09:06:29.102Z,45.40
2023-02-11T09:08:58.459Z,45.27
2023-02-11T09:11:35.089Z,45.28
2023-02-11T09:14:03.956Z,45.10
2023-02-11T09:16:35.200Z,45.23
2023-02-11T09:19:05.164Z,45.21
2023-02-11T09:21:32.005Z,44.85
2023-02-11T09:23:58.845Z,44.95
2023-02-11T09:26:32.546Z,44.89
2023-02-11T09:29:00.218Z,44.85
2023-02-11T09:31:31.163Z,45.33
2023-02-11T09:34:04.673Z,45.22
2023-02-11T09:36:38.814Z,45.27
2023-02-11T09:39:10.097Z,45.22
2023-02-11T09:42:03.368Z,45.43
2023-02-11T09:44:33.693Z,45.29
2023-02-11T09:47:34.501Z,45.49
2023-02-11T09:50:16.238Z,45.50
2023-02-11T09:52:54.411Z,45.83
2023-02-11T09:55:37.736Z,45.94
2023-02-11T09:58:12.706Z,45.60
2023-02-11T10:01:02.398Z,45.54
2023-02-11T10:03:46.424Z,45.70
2023-02-11T10:06:48.452Z,45.59
2023-02-11T10:09:37.338Z,45.49
2023-02-11T10:12:15.571Z,45.46
2023-02-11T10:15:25.847Z,45.48
2023-02-11T10:18:24.394Z,45.80
2023-02-11T10:21:32.939Z,45.23
2023-02-11T10:24:03.774Z,45.05
2023-02-11T10:26:33.219Z,45.38
2023-02-11T10:29:07.073Z,45.06
2023-02-11T10:31:42.455Z,44.70
2023-02-11T10:34:14.692Z,44.33
2023-02-11T10:36:43.764Z,44.09
2023-02-11T10:39:17.748Z,44.07
2023-02-11T10:41:54.371Z,44.00
2023-02-11T10:44:50.221Z,43.76
2023-02-11T10:47:24.476Z,43.20
2023-02-11T10:49:51.312Z,43.69
2023-02-11T10:52:17.962Z,43.47
2023-02-11T10:54:59.921Z,43.16
2023-02-11T10:57:34.136Z,42.94
2023-02-11T11:00:37.064Z,42.87
2023-02-11T11:03:16.866Z,42.85
2023-02-11T11:06:02.626Z,42.40
2023-02-11T11:08:46.459Z,42.22
2023-02-11T11:11:19.841Z,42.11
2023-02-11T11:13:52.244Z,41.87
2023-02-11T11:16:33.623Z,41.10
2023-02-11T11:19:09.174Z,41.11
2023-02-11T11:21:46.174Z,41.31
2023-02-11T11:24:41.539Z,41.18
2023-02-11T11:27:20.923Z,40.99
2023-02-11T11:29:55.603Z,40.74
2023-02-11T11:32:27.892Z,40.48
2023-02-11T11:35:04.053Z,40.21
2023-02-11T11:37:33.287Z,40.13
2023-02-11T11:40:13.527Z,40.13
2023-02-11T11:42:41.286Z,40.27
2023-02-11T11:45:19.660Z,39.91
2023-02-11T11:48:10.153Z,39.98
2023-02-11T11:50:58.447Z,39.87
2023-02-11T11:53:30.846Z,40.17
2023-02-11T11:56:20.152Z,40.00
2023-02-11T11:58:47.360Z,40.00
2023-02-11T12:01:28.950Z,39.58
2023-02-11T12:04:19.605Z,39.81
2023-02-11T12:07:18.913Z,39.84
2023-02-11T12:10:11.983Z,39.56
2023-02-11T12:13:02.342Z,39.47
2023-02-11T12:16:15.028Z,39.09
2023-02-11T12:19:13.841Z,39.25
2023-02-11T12:22:05.748Z,38.77
2023-02-11T12:25:15.963Z,38.35
2023-02-11T12:28:07.118Z,38.54
2023-02-11T12:31:07.564Z,38.40
2023-02-11T12:33:54.757Z,37.83
2023-02-11T12:36:54.383Z,37.29
2023-02-11T12:39:39.624Z,37.15
2023-02-11T12:42:46.666Z,37.21
2023-02-11T12:45:18.326Z,37.31
2023-02-11T12:48:41.834Z,37.34
2023-02-11T12:51:39.731Z,37.17
2023-02-11T12:54:26.142Z,36.91
2023-02-11T12:57:18.388Z,36.68
2023-02-11T13:00:18.446Z,36.56
2023-02-11T13:03:09.685Z,35.78
2023-02-11T13:05:52.991Z,35.75
2023-02-11T13:08:36.739Z,35.17
2023-02-11T13:11:27.192Z,34.94
2023-02-11T13:14:11.631Z,34.25
2023-02-11T13:16:46.544Z,33.76
2023-02-11T13:19:13.290Z,33.53
2023-02-11T13:22:10.861Z,32.95
2023-02-11T13:25:16.218Z,32.49
2023-02-11T13:28:08.545Z,32.02
2023-02-11T13:30:39.398Z,31.71
2023-02-11T13:33:19.739Z,31.30
2023-02-11T13:36:06.380Z,31.19
2023-02-11T13:38:33.718Z,30.74
2023-02-11T13:41:24.662Z,30.44
2023-02-11T13:44:06.152Z,29.39
2023-02-11T13:46:58.114Z,29.04
2023-02-11T13:49:40.667Z,28.77
2023-02-11T13:52:30.459Z,29.31
2023-02-11T13:55:08.225Z,29.35
2023-02-11T13:57:38.050Z,29.69
2023-02-11T14:00:33.383Z,30.69
2023-02-11T14:03:30.450Z,31.35
2023-02-11T14:06:41.616Z,31.94
2023-02-11T14:09:14.665Z,32.61
2023-02-11T14:11:41.885Z,33.25
2023-02-11T14:14:27.456Z,34.13
2023-02-11T14:17:02.882Z,34.58
2023-02-11T14:19:45.336Z,34.83
2023-02-11T14:22:26.963Z,35.02
2023-02-11T14:25:02.978Z,35.45
2023-02-11T14:28:07.563Z,35.62
2023-02-11T14:30:54.923Z,35.72
2023-02-11T14:33:52.459Z,36.26
2023-02-11T14:36:44.569Z,36.57
2023-02-11T14:39:52.958Z,36.64
2023-02-11T14:42:25.313Z,36.85
2023-02-11T14:44:58.504Z,36.86
2023-02-11T14:47:36.930Z,37.16
2023-02-11T14:50:06.534Z,37.03
2023-02-11T14:52:38.018Z,37.26
2023-02-11T14:55:37.942Z,37.31
2023-02-11T14:58:15.013Z,37.21
2023-02-11T15:01:01.671Z,37.40
2023-02-11T15:03:31.385Z,37.42
2023-02-11T15:06:16.190Z,37.44
2023-02-11T15:08:50.310Z,37.46
2023-02-11T15:11:21.425Z,37.32
2023-02-11T15:13:50.203Z,37.58
2023-02-11T15:16:22.538Z,37.56
2023-02-11T15:18:57.995Z,37.87
2023-02-11T15:21:29.716Z,38.01
2023-02-11T15:24:02.388Z,38.04
2023-02-11T15:26:30.145Z,38.08
2023-02-11T15:28:56.937Z,38.05
2023-02-11T15:31:27.040Z,38.39
2023-02-11T15:33:54.833Z,38.41
2023-02-11T15:36:28.446Z,38.56
2023-02-11T15:39:49.669Z,38.69
2023-02-11T15:42:20.837Z,38.86
2023-02-11T15:44:56.312Z,38.71
2023-02-11T15:47:23.741Z,38.79
2023-02-11T15:49:51.084Z,39.04
2023-02-11T15:52:25.545Z,39.28
2023-02-11T15:54:54.795Z,39.38
2023-02-11T15:57:23.119Z,39.36
2023-02-11T15:59:53.306Z,39.31
2023-02-11T16:02:34.997Z,40.04
2023-02-11T16:05:09.373Z,39.63
2023-02-11T16:07:50.971Z,39.71
2023-02-11T16:10:32.314Z,39.97
2023-02-11T16:13:07.367Z,40.10
2023-02-11T16:15:34.101Z,40.49
2023-02-11T16:18:15.610Z,40.54
2023-02-11T16:20:47.986Z,40.30
2023-02-11T16:23:24.553Z,40.81
2023-02-11T16:26:31.131Z,40.96
2023-02-11T16:29:23.227Z,40.87
2023-02-11T16:31:50.572Z,40.95
2023-02-11T16:34:23.349Z,41.02
2023-02-11T16:36:51.857Z,41.36
2023-02-11T16:39:23.284Z,41.52
2023-02-11T16:41:51.607Z,41.28
2023-02-11T16:44:19.034Z,41.39
2023-02-11T16:46:46.127Z,41.48
2023-02-11T16:49:27.938Z,41.45
2023-02-11T16:52:00.923Z,41.74
2023-02-11T16:54:29.569Z,41.72
2023-02-11T16:56:57.449Z,41.85
2023-02-11T16:59:24.493Z,41.63
2023-02-11T17:01:53.081Z,41.72
2023-02-11T17:04:25.717Z,41.94
2023-02-11T17:06:52.816Z,41.62
2023-02-11T17:09:27.796Z,41.88
2023-02-11T17:11:56.638Z,41.84
2023-02-11T17:14:23.447Z,41.59
2023-02-11T17:16:50.469Z,41.73
2023-02-11T17:19:20.922Z,41.89
2023-02-11T17:21:50.999Z,41.71
2023-02-11T17:24:18.895Z,41.59
2023-02-11T17:26:46.378Z,41.58
2023-02-11T17:29:16.826Z,41.68
2023-02-11T17:31:44.233Z,41.76
2023-02-11T17:34:11.805Z,41.59
2023-02-11T17:36:41.196Z,42.24
2023-02-11T17:39:08.611Z,41.76
2023-02-11T17:41:37.713Z,41.97
2023-02-11T17:44:05.121Z,41.98
2023-02-11T17:46:32.305Z,41.99
2023-02-11T17:48:59.704Z,41.86
2023-02-11T17:51:27.916Z,42.06
2023-02-11T17:53:57.467Z,42.13
2023-02-11T17:56:24.538Z,41.71
2023-02-11T17:58:52.893Z,41.89
2023-02-11T18:01:20.405Z,42.10
2023-02-11T18:03:47.425Z,42.27
2023-02-11T18:06:14.341Z,42.07
2023-02-11T18:08:42.920Z,42.09
2023-02-11T18:11:12.377Z,42.10
2023-02-11T18:13:39.248Z,41.94
2023-02-11T18:16:08.240Z,42.37
2023-02-11T18:18:35.226Z,42.32
2023-02-11T18:21:08.788Z,42.26
2023-02-11T18:23:36.110Z,42.51
2023-02-11T18:26:07.091Z,42.54
2023-02-11T18:28:33.997Z,42.56
2023-02-11T18:31:01.877Z,42.36
2023-02-11T18:33:30.483Z,42.70
2023-02-11T18:35:57.487Z,42.85
2023-02-11T18:38:25.001Z,42.75
2023-02-11T18:40:52.315Z,42.86
2023-02-11T18:43:20.168Z,42.87
2023-02-11T18:45:49.021Z,43.31
2023-02-11T18:48:17.221Z,43.26
2023-02-11T18:50:46.275Z,43.13
2023-02-11T18:53:15.872Z,43.20
2023-02-11T18:55:44.457Z,43.01
2023-02-11T18:58:11.622Z,43.03
2023-02-11T19:00:45.463Z,42.97
2023-02-11T19:03:12.294Z,43.36
2023-02-11T19:05:46.960Z,43.07
2023-02-11T19:08:14.539Z,43.04
2023-02-11T19:10:44.602Z,43.08
2023-02-11T19:13:11.513Z,42.95
2023-02-11T19:15:47.736Z,43.14
2023-02-11T19:18:16.296Z,42.78
2023-02-11T19:20:44.462Z,43.35
2023-02-11T19:23:11.493Z,42.93
2023-02-11T19:25:45.312Z,43.30
2023-02-11T19:28:12.973Z,43.00
2023-02-11T19:30:40.205Z,43.27
2023-02-11T19:33:09.939Z,42.94
2023-02-11T19:35:36.908Z,43.17
2023-02-11T19:38:06.534Z,43.04
2023-02-11T19:40:33.544Z,43.21
2023-02-11T19:43:00.357Z,43.23
2023-02-11T19:45:27.245Z,43.19
2023-02-11T19:47:57.869Z,43.21
2023-02-11T19:50:25.265Z,43.26
2023-02-11T19:52:52.188Z,42.98
2023-02-11T19:55:19.080Z,42.75
2023-02-11T19:57:46.307Z,43.45
2023-02-11T20:00:13.730Z,42.98
2023-02-11T20:02:41.186Z,43.07
2023-02-11T20:05:08.365Z,43.27
2023-02-11T20:07:35.300Z,43.10
2023-02-11T20:10:02.421Z,43.13
2023-02-11T20:12:29.400Z,43.16
2023-02-11T20:14:56.324Z,43.16
2023-02-11T20:17:23.133Z,43.07
2023-02-11T20:19:49.942Z,42.94
2023-02-11T20:22:16.738Z,43.28
2023-02-11T20:24:43.550Z,42.95
2023-02-11T20:27:11.408Z,43.20
2023-02-11T20:29:39.328Z,43.08
2023-02-11T20:32:07.462Z,42.99
2023-02-11T20:34:34.422Z,43.31
2023-02-11T20:37:02.118Z,43.16
2023-02-11T20:39:28.928Z,43.08
2023-02-11T20:41:57.404Z,43.13
2023-02-11T20:44:24.649Z,43.28
2023-02-11T20:46:53.909Z,43.14
2023-02-11T20:49:23.964Z,43.45
2023-02-11T20:51:52.369Z,43.42
2023-02-11T20:54:21.036Z,43.51
2023-02-11T20:56:53.484Z,43.64
2023-02-11T20:59:21.060Z,43.39
2023-02-11T21:01:53.159Z,43.62
2023-02-11T21:04:27.169Z,43.76
2023-02-11T21:06:58.312Z,43.52
2023-02-11T21:09:29.654Z,43.80
2023-02-11T21:11:56.938Z,43.62
2023-02-11T21:14:25.331Z,43.88
2023-02-11T21:16:52.414Z,43.84
2023-02-11T21:19:20.264Z,43.48
2023-02-11T21:21:47.218Z,43.47
2023-02-11T21:24:14.515Z,43.87
2023-02-11T21:26:41.471Z,43.69
2023-02-11T21:29:09.655Z,43.57
2023-02-11T21:31:37.322Z,43.88
2023-02-11T21:34:05.781Z,43.92
2023-02-11T21:36:33.046Z,43.93
2023-02-11T21:39:01.557Z,43.83
2023-02-11T21:41:28.329Z,43.99
2023-02-11T21:43:55.233Z,43.99
2023-02-11T21:46:22.887Z,44.01
2023-02-11T21:48:50.257Z,44.05
2023-02-11T21:51:21.463Z,44.06
2023-02-11T21:53:52.197Z,44.13
2023-02-11T21:56:19.074Z,44.08
2023-02-11T21:58:46.612Z,43.71
2023-02-11T22:01:18.666Z,43.99
2023-02-11T22:03:46.225Z,43.98
2023-02-11T22:06:17.360Z,44.01
2023-02-11T22:08:44.227Z,44.02
2023-02-11T22:11:12.787Z,43.90
2023-02-11T22:13:41.012Z,43.77
2023-02-11T22:16:14.038Z,43.83
2023-02-11T22:18:42.144Z,43.91
2023-02-11T22:21:12.735Z,43.93
2023-02-11T22:23:40.175Z,43.75
2023-02-11T22:26:11.170Z,44.31
2023-02-11T22:28:40.417Z,43.78
2023-02-11T22:31:12.263Z,44.21
2023-02-11T22:33:39.666Z,44.17
2023-02-11T22:36:12.520Z,44.23
2023-02-11T22:38:39.342Z,44.02
2023-02-11T22:41:09.865Z,44.28
2023-02-11T22:43:37.852Z,44.38
2023-02-11T22:46:07.706Z,44.25
2023-02-11T22:48:35.745Z,44.10
2023-02-11T22:51:13.623Z,44.35
2023-02-11T22:53:40.700Z,44.17
2023-02-11T22:56:15.744Z,44.54
2023-02-11T22:58:43.097Z,44.36
2023-02-11T23:01:10.464Z,44.54
2023-02-11T23:03:37.328Z,44.13
2023-02-11T23:06:04.749Z,44.19
2023-02-11T23:08:32.610Z,44.47
2023-02-11T23:11:11.510Z,44.65
2023-02-11T23:13:40.870Z,44.24
2023-02-11T23:16:12.140Z,44.68
2023-02-11T23:18:42.979Z,44.76
2023-02-11T23:21:15.738Z,44.79
2023-02-11T23:23:43.045Z,44.37
2023-02-11T23:26:17.170Z,44.79
2023-02-11T23:28:47.444Z,44.63
2023-02-11T23:31:20.430Z,44.50
2023-02-11T23:33:48.593Z,44.55
2023-02-11T23:36:17.212Z,44.90
2023-02-11T23:38:44.598Z,44.63
2023-02-11T23:41:12.129Z,44.87
2023-02-11T23:43:39.066Z,44.71
2023-02-11T23:46:06.791Z,44.61
2023-02-11T23:48:35.807Z,44.67
2023-02-11T23:51:03.612Z,44.72
2023-02-11T23:53:30.470Z,44.68
2023-02-11T23:55:57.492Z,44.67
2023-02-11T23:58:24.309Z,44.74
